Time;durP1;ratioP1;P1;durP2;ratioP2;P2;SDS_P1;SDS_P2;PMS_P1;PMS_P2;Temp;Humidity;BMP_temperature;BMP_pressure;BME280_temperature;BME280_humidity;BME280_pressure;Samples;Min_cycle;Max_cycle;Signal;HPM_P1;HPM_P2
2021/05/28 00:01:58;;;;;;;6.85;1.88;;;7.00;99.90;;;;;;5026855;28;20045;-75
2021/05/28 00:04:24;;;;;;;6.30;1.65;;;7.00;99.90;;;;;;5004436;28;20030;-75
2021/05/28 00:06:49;;;;;;;4.05;1.48;;;7.00;99.90;;;;;;5014851;28;20094;-74
2021/05/28 00:09:15;;;;;;;8.70;1.80;;;7.00;99.90;;;;;;4997418;28;20022;-74
2021/05/28 00:11:40;;;;;;;9.02;1.52;;;7.00;99.90;;;;;;5018228;28;20022;-75
2021/05/28 00:14:06;;;;;;;3.75;1.70;;;7.00;99.90;;;;;;5034403;28;20457;-75
2021/05/28 00:16:32;;;;;;;8.88;1.80;;;6.90;99.90;;;;;;5034657;28;20021;-76
2021/05/28 00:18:57;;;;;;;5.68;1.60;;;6.90;99.90;;;;;;5036824;28;20052;-75
2021/05/28 00:21:23;;;;;;;18.90;2.35;;;6.90;99.90;;;;;;5053892;28;20045;-76
2021/05/28 00:23:49;;;;;;;6.90;1.70;;;6.90;99.90;;;;;;5034695;28;20033;-76
2021/05/28 00:26:14;;;;;;;13.50;1.98;;;6.90;99.90;;;;;;5034346;28;20036;-76
2021/05/28 00:28:41;;;;;;;8.98;2.72;;;6.80;99.90;;;;;;5034399;28;20032;-76
2021/05/28 00:31:07;;;;;;;11.23;2.42;;;6.70;99.90;;;;;;5034276;28;20029;-76
2021/05/28 00:33:33;;;;;;;3.28;1.60;;;6.80;99.90;;;;;;4998216;28;20025;-76
2021/05/28 00:35:58;;;;;;;10.30;1.67;;;6.80;99.90;;;;;;5014105;28;20092;-76
2021/05/28 00:38:24;;;;;;;8.07;1.92;;;6.80;99.90;;;;;;5014912;28;20032;-75
2021/05/28 00:40:49;;;;;;;4.80;2.22;;;6.80;99.90;;;;;;4996942;28;20022;-75
2021/05/28 00:43:15;;;;;;;3.92;1.55;;;6.80;99.90;;;;;;5031044;28;20029;-75
2021/05/28 00:45:40;;;;;;;3.78;1.38;;;6.80;99.90;;;;;;5017101;28;20037;-75
2021/05/28 00:48:06;;;;;;;14.77;2.13;;;6.80;99.90;;;;;;5034714;28;20026;-76
2021/05/28 00:50:32;;;;;;;11.07;2.75;;;6.80;99.90;;;;;;5016396;28;20021;-75
2021/05/28 00:52:58;;;;;;;10.45;2.25;;;6.70;99.90;;;;;;5016621;28;20079;-74
2021/05/28 00:55:26;;;;;;;6.53;1.95;;;6.70;99.90;;;;;;5034230;28;20067;-74
2021/05/28 00:57:53;;;;;;;7.25;1.88;;;6.70;99.90;;;;;;5034162;28;20078;-73
2021/05/28 01:00:19;;;;;;;4.70;2.05;;;6.60;99.90;;;;;;5012056;28;20130;-74
2021/05/28 01:02:45;;;;;;;3.67;1.90;;;6.60;99.90;;;;;;5014816;28;20511;-74
2021/05/28 01:05:11;;;;;;;4.50;1.58;;;6.60;99.90;;;;;;4997127;28;20021;-75
2021/05/28 01:07:36;;;;;;;10.23;2.15;;;6.60;99.90;;;;;;4996839;28;20022;-75
2021/05/28 01:10:03;;;;;;;6.90;1.92;;;6.50;99.90;;;;;;5014923;28;20025;-74
2021/05/28 01:12:29;;;;;;;7.40;1.83;;;6.40;99.90;;;;;;5014767;28;20018;-74
2021/05/28 01:14:54;;;;;;;6.30;1.90;;;6.40;99.90;;;;;;4996809;28;20125;-75
2021/05/28 01:17:21;;;;;;;33.25;3.40;;;6.40;99.90;;;;;;4997057;28;20021;-74
2021/05/28 01:19:46;;;;;;;6.22;1.90;;;6.40;99.90;;;;;;4997059;28;20022;-75
2021/05/28 01:22:12;;;;;;;6.90;2.20;;;6.40;99.90;;;;;;4996468;28;20026;-74
2021/05/28 01:24:37;;;;;;;9.60;2.80;;;6.40;99.90;;;;;;4996650;28;20028;-74
2021/05/28 01:27:03;;;;;;;6.15;2.00;;;6.40;99.90;;;;;;5014911;28;20037;-75
2021/05/28 01:29:29;;;;;;;5.55;1.67;;;6.40;99.90;;;;;;5024790;28;20029;-76
2021/05/28 01:31:55;;;;;;;5.20;2.10;;;6.40;99.90;;;;;;5016722;28;20025;-74
2021/05/28 01:34:20;;;;;;;4.22;1.75;;;6.40;99.90;;;;;;5017422;28;20124;-76
2021/05/28 01:36:46;;;;;;;5.47;1.63;;;6.40;99.90;;;;;;5034952;28;20052;-75
2021/05/28 01:39:12;;;;;;;7.72;1.92;;;6.30;99.90;;;;;;5043014;23;20051;-74
2021/05/28 01:41:38;;;;;;;5.40;2.17;;;6.20;99.90;;;;;;5034662;28;20467;-74
2021/05/28 01:44:08;;;;;;;14.75;2.08;;;6.30;99.90;;;;;;5035064;28;20123;-76
2021/05/28 01:46:34;;;;;;;9.18;2.38;;;6.20;99.90;;;;;;5013564;28;20018;-75
2021/05/28 01:49:02;;;;;;;15.60;1.80;;;6.20;99.90;;;;;;5014765;28;20455;-74
2021/05/28 01:51:28;;;;;;;4.72;1.60;;;6.20;99.90;;;;;;5015485;28;20018;-74
2021/05/28 01:53:53;;;;;;;4.38;1.85;;;6.20;99.90;;;;;;5018141;28;20088;-74
2021/05/28 01:56:19;;;;;;;4.18;1.85;;;6.10;99.90;;;;;;5043566;23;20045;-74
2021/05/28 01:58:44;;;;;;;6.65;1.70;;;6.10;99.90;;;;;;5058112;28;20057;-74
2021/05/28 02:01:10;;;;;;;45.42;3.50;;;6.10;99.90;;;;;;5058167;28;20040;-74
2021/05/28 02:03:36;;;;;;;14.13;2.58;;;6.90;99.90;;;;;;5057666;28;20031;-75
2021/05/28 02:06:01;;;;;;;6.10;2.08;;;6.00;99.90;;;;;;5024252;28;20018;-74
2021/05/28 02:08:29;;;;;;;8.77;2.60;;;6.00;99.90;;;;;;5038536;28;20017;-74
2021/05/28 02:10:55;;;;;;;5.97;1.35;;;6.00;99.90;;;;;;5038046;28;20462;-74
2021/05/28 02:13:20;;;;;;;4.85;1.05;;;6.00;99.90;;;;;;5020232;28;20035;-74
2021/05/28 02:15:46;;;;;;;2.92;1.92;;;6.00;99.90;;;;;;5057076;28;20021;-76
2021/05/28 02:18:12;;;;;;;9.18;1.63;;;6.20;99.90;;;;;;5057662;28;20366;-74
2021/05/28 02:20:38;;;;;;;6.55;2.33;;;6.10;99.90;;;;;;5039862;28;20120;-74
2021/05/28 02:23:03;;;;;;;3.67;1.52;;;6.10;99.90;;;;;;5057592;28;20120;-74
2021/05/28 02:25:29;;;;;;;5.15;1.70;;;6.10;99.90;;;;;;5040224;28;20500;-74
2021/05/28 02:27:55;;;;;;;4.97;1.65;;;6.00;99.90;;;;;;5037550;28;20109;-74
2021/05/28 02:30:20;;;;;;;3.85;1.77;;;6.00;99.90;;;;;;5019299;28;20029;-74
2021/05/28 02:32:46;;;;;;;6.28;1.73;;;6.10;99.90;;;;;;5079160;22;20425;-74
2021/05/28 02:35:13;;;;;;;3.72;1.50;;;6.10;99.90;;;;;;5069061;22;20049;-74
2021/05/28 02:37:39;;;;;;;7.95;1.45;;;6.00;99.90;;;;;;5037319;28;20029;-74
2021/05/28 02:40:07;;;;;;;8.25;2.00;;;6.00;99.90;;;;;;5036944;28;20022;-74
2021/05/28 02:42:33;;;;;;;6.15;1.60;;;5.90;99.90;;;;;;5019955;28;20041;-74
2021/05/28 02:44:58;;;;;;;11.50;1.85;;;5.90;99.90;;;;;;5036841;28;20474;-74
2021/05/28 02:47:24;;;;;;;2.75;0.90;;;5.80;99.90;;;;;;5037328;28;20112;-74
2021/05/28 02:49:50;;;;;;;4.55;1.35;;;5.70;99.90;;;;;;5019104;28;20036;-74
2021/05/28 02:52:16;;;;;;;2.88;1.20;;;5.70;99.90;;;;;;5019078;28;20538;-74
2021/05/28 02:54:42;;;;;;;4.85;1.40;;;5.70;99.90;;;;;;5036219;28;20025;-74
2021/05/28 02:57:08;;;;;;;4.22;0.90;;;5.70;99.90;;;;;;5019165;28;20112;-74
2021/05/28 02:59:33;;;;;;;2.40;0.75;;;5.60;99.90;;;;;;5036668;28;20056;-74
2021/05/28 03:01:59;;;;;;;4.22;1.30;;;5.60;99.90;;;;;;5018505;28;20018;-73
2021/05/28 03:04:25;;;;;;;3.28;0.75;;;5.60;99.90;;;;;;5036784;28;21819;-74
2021/05/28 03:06:50;;;;;;;2.63;0.98;;;5.60;99.90;;;;;;5036024;28;20033;-74
2021/05/28 03:09:16;;;;;;;2.80;1.30;;;5.50;99.90;;;;;;5036705;28;20030;-74
2021/05/28 03:11:42;;;;;;;7.05;1.52;;;5.50;99.90;;;;;;5018886;28;20542;-74
2021/05/28 03:14:07;;;;;;;3.58;1.33;;;5.50;99.90;;;;;;5035887;28;21177;-74
2021/05/28 03:16:33;;;;;;;4.20;0.85;;;5.40;99.90;;;;;;5036019;28;20104;-74
2021/05/28 03:19:05;;;;;;;3.03;1.13;;;5.40;99.90;;;;;;5049851;22;20041;-75
2021/05/28 03:24:02;;;;;;;3.38;1.38;;;5.30;99.90;;;;;;5037104;28;20037;-74
2021/05/28 03:26:29;;;;;;;5.20;1.73;;;5.40;99.90;;;;;;5036097;28;20025;-73
2021/05/28 03:28:57;;;;;;;4.68;1.40;;;5.30;99.90;;;;;;5018626;28;20033;-74
2021/05/28 03:31:23;;;;;;;2.40;1.30;;;5.30;99.90;;;;;;5018395;28;20018;-74
2021/05/28 03:33:49;;;;;;;2.22;1.08;;;5.30;99.90;;;;;;5017713;28;20033;-74
2021/05/28 03:36:16;;;;;;;5.70;1.60;;;5.40;99.90;;;;;;5018041;28;20024;-74
2021/05/28 03:38:43;;;;;;;2.70;1.33;;;5.30;99.90;;;;;;5040236;22;20071;-75
2021/05/28 03:41:09;;;;;;;4.68;1.35;;;5.30;99.90;;;;;;5036372;28;20030;-74
2021/05/28 03:43:35;;;;;;;2.80;1.70;;;5.30;99.90;;;;;;5036824;28;20036;-74
2021/05/28 03:46:01;;;;;;;3.97;1.45;;;5.40;99.90;;;;;;5036655;28;20025;-75
2021/05/28 03:48:27;;;;;;;5.53;1.83;;;5.40;99.90;;;;;;5019554;28;20029;-73
2021/05/28 03:50:52;;;;;;;5.18;1.83;;;5.40;99.90;;;;;;5037456;28;20026;-74
2021/05/28 03:53:18;;;;;;;5.53;1.35;;;5.40;99.90;;;;;;5036791;28;20032;-74
2021/05/28 03:55:44;;;;;;;3.92;1.50;;;5.40;99.90;;;;;;5048869;22;20017;-75
2021/05/28 03:58:10;;;;;;;7.40;2.53;;;5.40;99.90;;;;;;5036508;28;20029;-74
2021/05/28 04:00:35;;;;;;;8.55;2.47;;;5.40;99.90;;;;;;5019724;28;20013;-74
2021/05/28 04:03:01;;;;;;;4.80;1.48;;;5.30;99.90;;;;;;5086889;22;20444;-74
2021/05/28 04:05:27;;;;;;;7.68;1.77;;;5.40;99.90;;;;;;5046449;28;20386;-74
2021/05/28 04:07:52;;;;;;;6.03;1.85;;;5.40;99.90;;;;;;5056204;28;20014;-75
2021/05/28 04:10:18;;;;;;;6.85;2.70;;;5.40;99.90;;;;;;5020074;28;20022;-75
2021/05/28 04:12:44;;;;;;;4.20;1.80;;;5.40;99.90;;;;;;5035740;28;20382;-75
2021/05/28 04:15:10;;;;;;;4.80;2.30;;;5.60;99.90;;;;;;5017118;28;20017;-75
2021/05/28 04:17:36;;;;;;;3.45;1.90;;;5.50;99.90;;;;;;5035666;28;20022;-75
2021/05/28 04:20:05;;;;;;;3.92;2.20;;;5.60;99.90;;;;;;5033025;28;20048;-75
2021/05/28 04:22:31;;;;;;;7.50;2.30;;;5.70;99.90;;;;;;5055376;28;20052;-74
2021/05/28 04:24:57;;;;;;;4.70;2.80;;;5.80;99.90;;;;;;5037719;28;20036;-75
2021/05/28 04:27:23;;;;;;;4.88;2.50;;;5.90;99.90;;;;;;5055254;28;20025;-75
2021/05/28 04:29:48;;;;;;;4.65;2.42;;;6.00;99.90;;;;;;5035431;28;20025;-75
2021/05/28 04:32:14;;;;;;;6.95;2.85;;;6.10;99.90;;;;;;5017872;28;20025;-75
2021/05/28 04:34:39;;;;;;;7.47;3.08;;;6.20;99.90;;;;;;5034736;28;20474;-75
2021/05/28 04:37:05;;;;;;;5.43;2.40;;;6.20;99.90;;;;;;5018232;28;20120;-74
2021/05/28 04:39:31;;;;;;;5.85;2.63;;;6.40;99.90;;;;;;5037498;28;20032;-75
2021/05/28 04:41:57;;;;;;;4.40;2.35;;;6.50;99.90;;;;;;5019518;28;20037;-74
2021/05/28 04:44:23;;;;;;;8.48;3.13;;;6.50;99.90;;;;;;5019234;28;20025;-74
2021/05/28 04:46:49;;;;;;;6.60;2.78;;;6.90;99.90;;;;;;5036428;28;20034;-74
2021/05/28 04:49:17;;;;;;;10.35;3.35;;;6.80;99.90;;;;;;5017024;28;20569;-74
2021/05/28 04:51:43;;;;;;;7.10;3.03;;;6.90;99.90;;;;;;5036091;28;20056;-74
2021/05/28 04:54:09;;;;;;;5.22;2.63;;;7.00;99.90;;;;;;5034953;28;20026;-74
2021/05/28 04:56:34;;;;;;;7.25;3.20;;;7.10;99.90;;;;;;5035412;28;20018;-76
2021/05/28 04:59:00;;;;;;;10.30;3.15;;;7.20;99.90;;;;;;5034384;28;20057;-76
2021/05/28 05:01:25;;;;;;;10.02;3.25;;;7.30;99.90;;;;;;5034470;28;20026;-74
2021/05/28 05:03:51;;;;;;;14.38;3.80;;;7.40;99.90;;;;;;5034530;28;20175;-74
2021/05/28 05:06:17;;;;;;;8.60;3.05;;;7.60;99.90;;;;;;5016172;28;20112;-75
2021/05/28 05:08:43;;;;;;;7.07;3.42;;;7.70;99.90;;;;;;5026729;28;20021;-74
2021/05/28 05:11:09;;;;;;;6.55;2.95;;;7.80;99.90;;;;;;5053454;28;20029;-75
2021/05/28 05:13:37;;;;;;;5.68;2.67;;;7.90;99.90;;;;;;5053407;28;20025;-75
2021/05/28 05:16:03;;;;;;;8.00;2.88;;;8.00;99.90;;;;;;5035138;28;20048;-74
2021/05/28 05:18:32;;;;;;;14.00;2.63;;;8.10;99.90;;;;;;5052974;28;20386;-75
2021/05/28 05:20:58;;;;;;;4.97;2.75;;;8.20;99.90;;;;;;5035293;28;20017;-76
2021/05/28 05:23:23;;;;;;;8.93;3.17;;;8.40;99.90;;;;;;5053166;28;20028;-75
2021/05/28 05:25:49;;;;;;;9.30;3.53;;;8.50;99.90;;;;;;5054829;28;20025;-74
2021/05/28 05:28:15;;;;;;;7.15;2.80;;;8.60;99.90;;;;;;5056074;28;20021;-74
2021/05/28 05:30:41;;;;;;;14.45;3.50;;;8.70;99.90;;;;;;5038804;28;20035;-74
2021/05/28 05:33:07;;;;;;;6.47;3.08;;;8.90;99.90;;;;;;5057006;28;20104;-75
2021/05/28 05:35:33;;;;;;;6.75;3.15;;;9.00;99.90;;;;;;5057082;28;20426;-75
2021/05/28 05:38:09;;;;;;;9.00;2.67;;;9.10;99.90;;;;;;5056761;28;20092;-75
2021/05/28 05:40:39;;;;;;;6.70;2.92;;;9.30;99.90;;;;;;5042934;23;20041;-75
2021/05/28 05:43:05;;;;;;;5.40;2.30;;;9.40;99.90;;;;;;5036460;28;20026;-76
2021/05/28 05:45:31;;;;;;;7.22;2.38;;;9.20;99.90;;;;;;5009087;28;20022;-79
2021/05/28 05:47:56;;;;;;;6.47;2.55;;;9.70;99.90;;;;;;5018176;28;20383;-75
2021/05/28 05:50:22;;;;;;;4.95;1.90;;;9.80;99.90;;;;;;4999229;28;20014;-74
2021/05/28 05:52:49;;;;;;;9.15;2.58;;;10.00;99.90;;;;;;5016813;28;20030;-74
2021/05/28 05:55:16;;;;;;;6.28;1.85;;;10.20;99.90;;;;;;4999448;28;20018;-75
2021/05/28 05:57:41;;;;;;;7.93;2.65;;;10.30;99.90;;;;;;5000551;28;20018;-77
2021/05/28 06:00:07;;;;;;;7.75;2.72;;;10.50;99.90;;;;;;5036553;28;20048;-75
2021/05/28 06:02:34;;;;;;;12.00;2.72;;;10.70;99.90;;;;;;5019204;28;20041;-76
2021/05/28 06:04:59;;;;;;;6.13;1.40;;;10.80;99.90;;;;;;5018718;28;20541;-74
2021/05/28 06:07:25;;;;;;;4.93;1.70;;;11.00;99.90;;;;;;5037207;28;20079;-80
2021/05/28 06:09:50;;;;;;;11.93;2.15;;;11.20;99.90;;;;;;5017605;28;20048;-76
2021/05/28 06:12:16;;;;;;;6.07;1.10;;;11.30;99.90;;;;;;5018509;28;20029;-76
2021/05/28 06:14:42;;;;;;;9.90;1.50;;;11.30;99.90;;;;;;5018753;28;20034;-79
2021/05/28 06:17:07;;;;;;;3.75;0.90;;;11.40;99.90;;;;;;5018643;28;20026;-77
2021/05/28 06:19:33;;;;;;;6.47;1.35;;;13.20;99.90;;;;;;5012230;28;20020;-78
2021/05/28 06:21:58;;;;;;;5.57;2.05;;;11.60;99.90;;;;;;5018611;28;20479;-76
2021/05/28 06:24:27;;;;;;;8.63;1.80;;;11.70;99.90;;;;;;5016282;28;20029;-76
2021/05/28 06:26:52;;;;;;;4.00;1.67;;;11.70;99.90;;;;;;5016254;28;20086;-76
2021/05/28 06:29:18;;;;;;;6.13;1.70;;;11.80;99.90;;;;;;5016096;28;20062;-78
2021/05/28 06:31:45;;;;;;;6.80;1.40;;;12.00;99.90;;;;;;5000062;28;20026;-77
2021/05/28 06:34:11;;;;;;;13.55;2.45;;;12.00;99.90;;;;;;4998948;28;20068;-75
2021/05/28 06:36:36;;;;;;;5.95;1.95;;;12.10;99.90;;;;;;5014123;28;20375;-75
2021/05/28 06:39:04;;;;;;;5.53;1.17;;;12.20;99.90;;;;;;5014294;28;20383;-74
2021/05/28 06:41:30;;;;;;;8.57;1.77;;;12.20;99.90;;;;;;4998371;28;20598;-76
2021/05/28 06:43:56;;;;;;;4.28;1.23;;;12.30;99.90;;;;;;4999089;28;20121;-76
2021/05/28 06:46:21;;;;;;;10.15;1.58;;;12.30;99.90;;;;;;5002729;28;20030;-74
2021/05/28 06:48:47;;;;;;;7.15;1.05;;;12.40;99.90;;;;;;5023454;28;20848;-74
2021/05/28 06:51:14;;;;;;;3.63;0.98;;;12.40;99.90;;;;;;5019763;28;20052;-76
2021/05/28 06:53:40;;;;;;;6.80;1.38;;;12.40;99.90;;;;;;5019026;28;20508;-75
2021/05/28 06:56:06;;;;;;;4.25;1.50;;;12.50;99.90;;;;;;5017464;28;20160;-76
2021/05/28 06:58:32;;;;;;;3.67;0.90;;;12.60;99.90;;;;;;5015936;28;20172;-75
2021/05/28 07:00:58;;;;;;;9.27;1.25;;;12.60;99.90;;;;;;5022925;28;20463;-75
2021/05/28 07:03:23;;;;;;;4.88;1.50;;;12.70;99.90;;;;;;5014401;28;20040;-74
2021/05/28 07:05:49;;;;;;;6.57;1.20;;;12.70;99.90;;;;;;5016414;28;20022;-76
2021/05/28 07:08:15;;;;;;;3.13;0.75;;;12.60;99.90;;;;;;5014215;28;20030;-76
2021/05/28 07:10:41;;;;;;;8.32;0.70;;;12.50;99.90;;;;;;5031708;28;20056;-76
2021/05/28 07:13:07;;;;;;;2.70;0.90;;;12.40;99.90;;;;;;5035016;28;20041;-74
2021/05/28 07:15:32;;;;;;;3.03;0.93;;;12.40;99.90;;;;;;5035237;28;20053;-76
2021/05/28 07:17:58;;;;;;;4.95;0.90;;;12.60;99.90;;;;;;5015342;28;20438;-74
2021/05/28 07:20:24;;;;;;;4.65;0.40;;;12.70;99.90;;;;;;5015276;28;20033;-76
2021/05/28 07:22:50;;;;;;;4.05;0.75;;;12.90;99.90;;;;;;5015311;28;20037;-77
2021/05/28 07:25:16;;;;;;;2.55;0.75;;;13.00;99.90;;;;;;5019391;22;20065;-74
2021/05/28 07:27:42;;;;;;;3.05;0.70;;;13.10;99.90;;;;;;5017279;28;20060;-74
2021/05/28 07:30:08;;;;;;;1.23;0.45;;;13.40;99.90;;;;;;5030678;22;20057;-75
2021/05/28 07:32:35;;;;;;;3.40;0.73;;;13.50;99.90;;;;;;5035048;28;20017;-74
2021/05/28 07:35:01;;;;;;;1.10;0.60;;;13.70;99.90;;;;;;5016654;28;20025;-75
2021/05/28 07:37:27;;;;;;;2.10;1.00;;;13.80;99.90;;;;;;5014159;28;20017;-73
2021/05/28 07:39:52;;;;;;;2.50;0.50;;;14.00;99.90;;;;;;5002977;28;20107;-73
2021/05/28 07:42:18;;;;;;;2.53;0.28;;;14.00;99.90;;;;;;5002803;28;20018;-75
2021/05/28 07:44:44;;;;;;;1.77;0.30;;;14.10;99.90;;;;;;5030843;28;20034;-75
2021/05/28 07:47:11;;;;;;;4.45;0.35;;;14.30;99.90;;;;;;5032937;28;20525;-73
2021/05/28 07:49:38;;;;;;;7.00;0.30;;;14.50;99.90;;;;;;5034145;28;20390;-73
2021/05/28 07:52:04;;;;;;;3.05;0.20;;;14.60;99.90;;;;;;5034454;28;20421;-73
2021/05/28 07:54:29;;;;;;;4.25;0.20;;;14.60;99.90;;;;;;5016468;28;20032;-75
2021/05/28 07:56:55;;;;;;;0.88;0.20;;;14.70;99.90;;;;;;5016516;28;20028;-76
2021/05/28 07:59:21;;;;;;;1.25;0.50;;;14.60;99.90;;;;;;5016462;28;20371;-76
2021/05/28 08:01:46;;;;;;;4.18;0.45;;;14.70;99.90;;;;;;5029271;22;20136;-75
2021/05/28 08:04:12;;;;;;;1.45;0.17;;;14.70;99.90;;;;;;5046808;22;20474;-73
2021/05/28 08:06:37;;;;;;;0.70;0.10;;;14.90;99.90;;;;;;5034275;28;20096;-77
2021/05/28 08:09:03;;;;;;;3.20;0.40;;;15.50;99.90;;;;;;5034012;28;20025;-77
2021/05/28 08:11:29;;;;;;;3.60;0.28;;;15.10;99.90;;;;;;5034618;28;20104;-76
2021/05/28 08:13:54;;;;;;;2.67;0.45;;;15.20;99.60;;;;;;5032920;28;20113;-76
2021/05/28 08:16:20;;;;;;;1.20;0.30;;;15.40;98.30;;;;;;5016480;28;20029;-77
2021/05/28 08:18:46;;;;;;;4.68;0.85;;;15.20;99.90;;;;;;5019586;28;20037;-74
2021/05/28 08:21:12;;;;;;;2.25;0.20;;;15.30;97.70;;;;;;5016365;28;20025;-77
2021/05/28 08:23:39;;;;;;;2.15;0.10;;;15.30;96.90;;;;;;5023997;28;20494;-75
2021/05/28 08:26:04;;;;;;;0.57;0.40;;;15.30;96.90;;;;;;5061872;22;20045;-77
2021/05/28 08:28:32;;;;;;;2.85;0.80;;;15.50;98.20;;;;;;5035878;28;20513;-75
2021/05/28 08:30:58;;;;;;;2.47;0.20;;;15.70;94.60;;;;;;5069949;28;20035;-76
2021/05/28 08:33:24;;;;;;;11.07;1.65;;;15.80;92.10;;;;;;5045625;28;20033;-74
2021/05/28 08:35:50;;;;;;;0.95;0.10;;;15.70;94.90;;;;;;5021538;28;20478;-74
2021/05/28 08:38:15;;;;;;;2.10;0.20;;;15.70;93.50;;;;;;5054019;22;20160;-74
2021/05/28 08:40:41;;;;;;;2.72;0.13;;;15.80;93.70;;;;;;5036222;28;20032;-74
2021/05/28 08:43:07;;;;;;;0.55;0.20;;;15.90;93.80;;;;;;5059790;28;20024;-74
2021/05/28 08:45:41;;;;;;;7.00;0.60;;;16.10;93.20;;;;;;5043576;28;20021;-76
2021/05/28 08:48:08;;;;;;;2.20;0.10;;;16.20;92.00;;;;;;5034440;28;20478;-75
2021/05/28 08:50:34;;;;;;;0.30;0.10;;;16.20;90.10;;;;;;5054586;22;20064;-77
2021/05/28 08:53:05;;;;;;;1.63;0.13;;;16.10;88.70;;;;;;5033418;28;20032;-74
2021/05/28 08:55:32;;;;;;;0.88;0.10;;;16.20;90.30;;;;;;5016177;28;20533;-77
2021/05/28 08:57:58;;;;;;;0.98;0.10;;;16.40;92.20;;;;;;5033469;28;20024;-74
2021/05/28 09:00:25;;;;;;;2.28;0.20;;;17.80;89.00;;;;;;5019261;28;20021;-76
2021/05/28 09:02:51;;;;;;;7.18;0.45;;;16.80;90.20;;;;;;5020122;28;20018;-74
2021/05/28 09:05:23;;;;;;;0.95;0.10;;;16.90;89.20;;;;;;5019909;28;20038;-75
2021/05/28 09:07:59;;;;;;;1.30;0.25;;;17.10;90.60;;;;;;5020407;28;20116;-74
2021/05/28 09:10:38;;;;;;;2.22;0.28;;;17.50;83.90;;;;;;5020397;28;20084;-74
2021/05/28 09:13:14;;;;;;;3.97;0.00;;;17.20;86.10;;;;;;5019967;28;20033;-74
2021/05/28 09:15:43;;;;;;;2.90;0.10;;;17.20;81.80;;;;;;5035745;28;20463;-74
2021/05/28 09:18:09;;;;;;;0.47;0.15;;;17.20;81.20;;;;;;5039635;28;20022;-74
2021/05/28 09:20:36;;;;;;;2.50;0.30;;;17.20;82.50;;;;;;5031096;28;20057;-74
2021/05/28 09:23:05;;;;;;;1.08;0.10;;;17.40;83.60;;;;;;5039329;28;20021;-74
2021/05/28 09:25:50;;;;;;;1.75;0.00;;;17.50;83.40;;;;;;5037845;28;20026;-74
2021/05/28 09:28:16;;;;;;;2.75;0.00;;;17.40;81.60;;;;;;5039128;28;20049;-74
2021/05/28 09:30:41;;;;;;;1.40;0.65;;;17.40;82.60;;;;;;5039158;28;20471;-75
2021/05/28 09:33:18;;;;;;;1.05;0.10;;;17.30;82.00;;;;;;5021080;28;20090;-74
2021/05/28 09:35:44;;;;;;;1.17;0.10;;;17.20;81.30;;;;;;5039117;28;20036;-75
2021/05/28 09:38:09;;;;;;;3.50;0.10;;;17.20;81.90;;;;;;5039209;28;20029;-74
2021/05/28 09:40:42;;;;;;;0.38;0.08;;;17.20;81.80;;;;;;5021361;28;20028;-74
2021/05/28 09:43:13;;;;;;;2.83;0.00;;;17.30;78.50;;;;;;5039371;28;20478;-76
2021/05/28 09:45:39;;;;;;;1.63;0.20;;;17.40;79.20;;;;;;5021145;28;20025;-76
2021/05/28 09:48:06;;;;;;;3.03;0.10;;;17.60;76.80;;;;;;5022244;28;20022;-75
2021/05/28 09:50:33;;;;;;;1.75;0.10;;;17.80;75.40;;;;;;5039186;28;20029;-77
2021/05/28 09:53:04;;;;;;;1.85;0.17;;;17.90;71.50;;;;;;5076999;22;20029;-75
2021/05/28 09:55:31;;;;;;;1.98;0.40;;;17.90;74.40;;;;;;5018470;28;20034;-76
2021/05/28 09:57:57;;;;;;;1.75;0.17;;;18.10;76.40;;;;;;5017247;28;20030;-76
2021/05/28 10:00:38;;;;;;;0.80;0.20;;;18.00;76.10;;;;;;5000149;28;20101;-75
2021/05/28 10:03:22;;;;;;;1.45;0.17;;;17.90;74.20;;;;;;4982570;28;20030;-74
2021/05/28 10:05:56;;;;;;;0.73;0.10;;;17.70;74.40;;;;;;4982660;28;20018;-75
2021/05/28 10:08:24;;;;;;;1.05;0.20;;;17.60;76.90;;;;;;5031776;23;20056;-74
2021/05/28 10:10:52;;;;;;;0.45;0.00;;;17.50;78.00;;;;;;5039322;28;20513;-75
2021/05/28 10:13:20;;;;;;;0.25;0.10;;;17.50;78.80;;;;;;5035182;28;20116;-75
2021/05/28 10:15:49;;;;;;;0.50;0.20;;;17.50;79.30;;;;;;5018414;28;20509;-74
2021/05/28 10:18:16;;;;;;;0.85;0.10;;;17.60;75.70;;;;;;5022273;28;20474;-75
2021/05/28 10:20:49;;;;;;;1.63;0.10;;;17.40;73.20;;;;;;5035476;28;20029;-75
2021/05/28 10:23:15;;;;;;;2.10;0.30;;;17.30;76.30;;;;;;5036771;28;20104;-74
2021/05/28 10:25:41;;;;;;;3.30;0.30;;;17.30;82.30;;;;;;5018175;28;20025;-74
2021/05/28 10:28:15;;;;;;;5.43;0.70;;;17.30;83.20;;;;;;5067619;22;20053;-75
2021/05/28 10:30:43;;;;;;;1.83;0.20;;;17.20;84.50;;;;;;5055900;28;20029;-73
2021/05/28 10:33:26;;;;;;;2.88;0.20;;;17.40;86.20;;;;;;5055850;28;20021;-75
2021/05/28 10:36:00;;;;;;;2.72;0.10;;;17.50;82.80;;;;;;5041406;28;20024;-74
2021/05/28 10:38:36;;;;;;;2.47;0.30;;;17.50;81.30;;;;;;5035874;28;20026;-74
2021/05/28 10:41:04;;;;;;;1.75;0.40;;;17.50;81.20;;;;;;5036108;28;20025;-73
2021/05/28 10:43:33;;;;;;;1.42;0.32;;;17.40;81.90;;;;;;5018174;28;20486;-74
2021/05/28 10:46:02;;;;;;;;;;;17.20;80.70;;;;;;5019210;28;20026;-75
2021/05/28 10:48:40;;;;;;;0.95;0.52;;;17.10;84.90;;;;;;5018043;28;19932;-75
2021/05/28 10:51:25;;;;;;;1.50;0.40;;;17.00;85.90;;;;;;5017841;28;20084;-74
2021/05/28 10:53:53;;;;;;;0.88;0.30;;;17.00;86.50;;;;;;5036856;28;20041;-75
2021/05/28 10:56:22;;;;;;;4.07;0.40;;;17.20;89.90;;;;;;5035693;28;20099;-76
2021/05/28 10:59:11;;;;;;;1.02;0.50;;;17.20;83.30;;;;;;5036255;28;20013;-73
2021/05/28 11:01:56;;;;;;;3.08;0.73;;;17.20;82.70;;;;;;5052119;28;20029;-75
2021/05/28 11:04:26;;;;;;;2.83;0.63;;;17.20;83.00;;;;;;5054742;28;20017;-74
2021/05/28 11:07:02;;;;;;;1.27;0.30;;;17.20;84.40;;;;;;5051127;22;20114;-75
2021/05/28 11:09:45;;;;;;;0.98;0.13;;;17.30;86.30;;;;;;5034177;28;20049;-74
2021/05/28 11:12:12;;;;;;;2.30;0.13;;;17.40;80.20;;;;;;5017329;28;20040;-75
2021/05/28 11:14:40;;;;;;;2.78;0.20;;;17.80;77.90;;;;;;5039193;28;20490;-74
2021/05/28 11:17:13;;;;;;;1.20;0.20;;;18.20;77.90;;;;;;5055128;28;20098;-74
2021/05/28 11:19:46;;;;;;;1.15;0.10;;;18.60;74.10;;;;;;5037837;28;20144;-74
2021/05/28 11:22:24;;;;;;;0.98;0.10;;;18.50;77.80;;;;;;5054401;28;20031;-76
2021/05/28 11:24:53;;;;;;;1.35;0.17;;;18.70;78.60;;;;;;5054976;28;20450;-74
2021/05/28 11:27:24;;;;;;;2.13;0.30;;;19.10;79.10;;;;;;5019251;28;20125;-74
2021/05/28 11:30:15;;;;;;;1.60;0.30;;;19.30;73.50;;;;;;5031154;28;20029;-75
2021/05/28 11:32:44;;;;;;;0.75;0.30;;;19.30;76.50;;;;;;5068292;22;20075;-77
2021/05/28 11:35:28;;;;;;;;;;;22.10;78.20;;;;;;5034794;28;20045;-74
2021/05/28 11:37:59;;;;;;;0.47;0.10;;;19.30;73.40;;;;;;5031925;28;20285;-76
2021/05/28 11:40:26;;;;;;;2.15;0.28;;;19.20;73.90;;;;;;5020262;28;20520;-76
2021/05/28 11:43:02;;;;;;;1.50;0.75;;;19.20;71.40;;;;;;5034034;28;20079;-76
2021/05/28 11:45:27;;;;;;;0.60;0.20;;;19.20;75.90;;;;;;5027700;28;20022;-76
2021/05/28 11:47:53;;;;;;;1.75;0.35;;;19.20;73.90;;;;;;5014462;28;20368;-76
2021/05/28 11:50:20;;;;;;;3.03;0.20;;;19.50;76.90;;;;;;4996890;28;20037;-77
2021/05/28 11:53:00;;;;;;;1.95;0.00;;;19.90;77.00;;;;;;5018561;28;20014;-76
2021/05/28 11:55:27;;;;;;;1.25;0.20;;;20.10;72.80;;;;;;5012167;28;20029;-76
2021/05/28 11:57:56;;;;;;;1.95;0.20;;;19.90;65.30;;;;;;5022568;28;20021;-76
2021/05/28 12:00:23;;;;;;;2.50;0.20;;;19.80;70.70;;;;;;5034707;28;20049;-78
2021/05/28 12:02:48;;;;;;;0.77;0.22;;;20.10;72.90;;;;;;5034165;28;20025;-77
2021/05/28 12:05:29;;;;;;;1.45;0.22;;;20.40;69.10;;;;;;5016147;28;20372;-75
2021/05/28 12:07:58;;;;;;;2.65;0.20;;;20.50;70.50;;;;;;5034021;28;20104;-76
2021/05/28 12:10:24;;;;;;;3.00;0.65;;;20.40;73.00;;;;;;5015593;28;20393;-76
2021/05/28 12:13:03;;;;;;;2.22;0.20;;;20.90;70.00;;;;;;5033826;28;20087;-76
2021/05/28 12:15:33;;;;;;;1.10;0.15;;;21.50;69.10;;;;;;5016240;28;20099;-75
2021/05/28 12:18:19;;;;;;;0.70;0.10;;;21.80;64.80;;;;;;5016443;28;20013;-75
2021/05/28 12:20:48;;;;;;;0.30;0.00;;;22.50;64.30;;;;;;5015646;28;20079;-76
2021/05/28 12:23:25;;;;;;;6.90;0.65;;;22.90;63.70;;;;;;5030117;28;20029;-77
2021/05/28 12:25:57;;;;;;;1.93;0.00;;;22.80;57.80;;;;;;5014900;28;20036;-74
2021/05/28 12:28:27;;;;;;;1.33;0.00;;;22.20;55.90;;;;;;5000651;28;20773;-75
2021/05/28 12:31:03;;;;;;;1.27;0.00;;;21.80;59.20;;;;;;5004798;28;20017;-77
2021/05/28 12:33:32;;;;;;;1.33;0.05;;;21.30;57.70;;;;;;5033848;28;20021;-77
2021/05/28 12:36:07;;;;;;;3.78;0.20;;;21.30;56.70;;;;;;4998187;28;20025;-75
2021/05/28 12:38:34;;;;;;;0.60;0.00;;;20.30;61.80;;;;;;5014080;28;20026;-74
2021/05/28 12:41:01;;;;;;;0.35;0.10;;;20.10;65.20;;;;;;5014267;28;20574;-75
2021/05/28 12:43:29;;;;;;;1.98;0.52;;;20.30;68.40;;;;;;4996462;28;20018;-73
2021/05/28 12:45:56;;;;;;;0.50;0.03;;;20.80;67.10;;;;;;5013427;28;20037;-76
2021/05/28 12:48:41;;;;;;;1.02;0.32;;;20.80;61.50;;;;;;4996221;28;20116;-74
2021/05/28 12:51:07;;;;;;;0.50;0.00;;;20.90;57.60;;;;;;4995988;28;20026;-75
2021/05/28 12:53:37;;;;;;;1.35;0.00;;;20.80;58.20;;;;;;5028474;28;20517;-76
2021/05/28 12:56:04;;;;;;;3.20;0.00;;;20.60;59.80;;;;;;5016258;28;20025;-74